Terminal Aerodrome Forecast
Issued by NWS

Home | Current Version | Previous Version | Text Only | Print | Product List | Glossary On
Versions: 1 2 3 4 5 6 7 8 9 10 11 12 13 14
188
FTUS44 KLZK 241140
TAFPBF
TAF
KPBF 241140Z 2412/2512 12005KT P6SM SCT040 OVC250
     FM241500 19010G18KT P6SM BKN250
     FM241800 18009KT P6SM OVC120
     FM250000 17005KT P6SM OVC060=

USA.gov is the U.S. government's official web portal to all federal, state and local government web resources and services.